Airfield :
LOGIN :

Register | Disclaimer

   EN    FR    IT 

 










Legend :    VFR   Marginal VFR   IFR   Intensive IFR   Very Intensive IFR
Visi :
Ceiling :
>= 8 km
>= 3000ft
5 to 8 km
1000 to 3000 ft
1500m to 5 km
500 to 1000 ft
800 to 1500m
200 to 500 ft
< 800m
< 200 ft
Symbols :   Thunderstorms  Fog  Heavy snow  Heavy precipitations  Wind > 20 kt
SIGMETs :     Misc.  Thunderstorms  Icing  Turbulence  Mountain Waves  Volcanic Ashes







- Airport Elevation : 32 ft
- IATA code : NRK


ESSP - Norrköping

CURRENT METAR :
  • 201550Z 26009KT 220V290 CAVOK 24/06 Q1025

EXPIRED METARs :
  • 201520Z 24006KT 200V270 CAVOK 24/05 Q1026
  • 201450Z 25008KT 220V280 CAVOK 24/06 Q1026
  • 201420Z AUTO 30007KT 270V350 9999 NCD 24/05 Q1026
  • 201350Z AUTO 27005KT 200V350 9999 NCD 24/06 Q1026
  • 201320Z AUTO 30009KT 270V340 9999 NCD 24/05 Q1026
  • 201250Z AUTO 28008KT 250V330 9999 NCD 24/05 Q1026

TAF TAF ESSP
Valid from the 20 at 15:00 until the 20 at 22:00 UTC


201430Z 2015/2022 27005KT CAVOK
No reported NOTAMs for that airfield.
1 SIGMET reported for the Sweden FIR (ESAA) :
 
Severe mountain waves
ESAA SIGMET 1 VALID 201600/202000 ESSA
ESAA SWEDEN FIR SEV MTW FCST W OF LINE N6840 E02129 - N6523 E01431 SFC/FL180 STNR NC=



MET'MAP, your aeronautical weather chart ! - Copyright ORBIFLY December 2007 - Disclaimer

ORBIFLY MET'MAP TEAM :

Programming & Development : Alexandra Zaïnal
Concept & Development : Baudouin d'Aumeries
Co-Development & Prog : Marc-Olivier Méhu
Technical & hardware support : Manuel Goepfert

Contact : metmap@orbifly.com




SOURCES & CREDITS :

   NOAA